Time;durP1;ratioP1;P1;durP2;ratioP2;P2;SDS_P1;SDS_P2;PMS_P1;PMS_P2;Temp;Humidity;BMP_temperature;BMP_pressure;BME280_temperature;BME280_humidity;BME280_pressure;Samples;Min_cycle;Max_cycle;Signal;HPM_P1;HPM_P2
2022/01/18 00:01:33;;;;;;;1.67;1.42;;;;;;;9.05;51.41;97977.67;1778924;80;21026;-60
2022/01/18 00:04:00;;;;;;;1.67;1.55;;;;;;;9.04;51.43;97976.06;1847469;77;20994;-61
2022/01/18 00:06:26;;;;;;;3.27;1.77;;;;;;;9.05;51.43;97974.22;1844998;77;21026;-62
2022/01/18 00:08:53;;;;;;;2.42;1.60;;;;;;;9.05;51.44;97979.00;1844821;77;21053;-61
2022/01/18 00:11:23;;;;;;;2.20;1.30;;;;;;;9.04;51.44;97987.98;1773200;80;21204;-62
2022/01/18 00:13:56;;;;;;;2.20;1.52;;;;;;;9.05;51.42;97986.14;1851979;77;21037;-62
2022/01/18 00:19:06;;;;;;;2.47;1.62;;;;;;;9.05;51.40;97991.44;1773464;80;21014;-60
2022/01/18 00:21:48;;;;;;;2.55;1.45;;;;;;;9.04;51.41;98000.42;1816244;77;21006;-61
2022/01/18 00:24:00;;;;;;;1.70;1.40;;;;;;;9.04;51.44;98004.39;1837343;77;21138;-61
2022/01/18 00:26:30;;;;;;;2.08;1.35;;;;;;;9.05;51.44;98015.28;1839030;77;21053;-60
2022/01/18 00:29:01;;;;;;;1.50;1.32;;;;;;;9.03;51.43;98012.02;1838730;77;21138;-61
2022/01/18 00:31:37;;;;;;;1.30;1.20;;;;;;;9.03;51.43;98018.64;1833065;77;21516;-62
2022/01/18 00:34:31;;;;;;;1.75;1.30;;;;;;;9.04;51.44;98035.66;1835681;77;21048;-62
2022/01/18 00:36:36;;;;;;;2.67;1.50;;;;;;;9.05;51.42;98037.79;1830770;77;21136;-61
2022/01/18 00:38:57;;;;;;;1.92;1.40;;;;;;;9.05;51.42;98051.03;1836518;77;21010;-62
2022/01/18 00:41:25;;;;;;;2.20;1.60;;;;;;;9.04;51.43;98051.55;1829825;77;21010;-61
2022/01/18 00:43:52;;;;;;;1.67;1.20;;;;;;;9.04;51.43;98058.69;1830645;77;21005;-61
2022/01/18 00:46:19;;;;;;;1.95;1.37;;;;;;;9.03;51.41;98075.06;1828522;77;21138;-62
2022/01/18 00:48:46;;;;;;;1.35;1.12;;;;;;;9.03;51.42;98088.83;1819716;77;21051;-61
2022/01/18 00:51:14;;;;;;;1.40;1.30;;;;;;;9.04;51.42;98098.42;1837253;77;21537;-62
2022/01/18 00:53:44;;;;;;;1.55;1.20;;;;;;;9.04;51.42;98085.98;1841171;77;21376;-62
2022/01/18 00:58:39;;;;;;;1.32;1.05;;;;;;;9.04;51.39;98112.99;1828136;77;21022;-62
2022/01/18 01:01:05;;;;;;;1.42;1.20;;;;;;;9.04;51.41;98148.23;1825272;77;21776;-62
2022/01/18 01:03:32;;;;;;;1.32;1.07;;;;;;;9.04;51.37;98151.41;1834283;77;21002;-62
2022/01/18 01:05:58;;;;;;;1.42;1.20;;;;;;;9.04;51.38;98162.81;1839993;77;21115;-63
2022/01/18 01:08:25;;;;;;;2.02;1.30;;;;;;;9.04;51.37;98180.54;1769314;80;21030;-62
2022/01/18 01:10:51;;;;;;;1.27;1.00;;;;;;;9.03;51.36;98181.02;1772882;80;21078;-63
2022/01/18 01:13:18;;;;;;;2.10;1.40;;;;;;;9.01;51.36;98178.27;1780436;80;21128;-61
2022/01/18 01:34:54;;;;;;;1.55;1.10;;;;;;;8.96;51.36;98245.56;1830966;77;21402;-62
2022/01/18 01:44:44;;;;;;;1.75;1.12;;;;;;;8.93;51.36;98296.30;1834364;78;21396;-62
2022/01/18 01:47:11;;;;;;;1.50;1.10;;;;;;;8.92;51.36;98288.02;1817782;77;21468;-61
2022/01/18 01:49:38;;;;;;;1.92;1.47;;;;;;;8.92;51.33;98294.64;1813947;78;21022;-61
2022/01/18 01:52:09;;;;;;;1.62;1.05;;;;;;;8.90;51.33;98312.05;1817906;78;21081;-61
2022/01/18 01:54:36;;;;;;;1.62;1.05;;;;;;;8.90;51.32;98313.38;1795367;78;21033;-61
2022/01/18 01:57:03;;;;;;;1.27;1.10;;;;;;;8.89;51.31;98319.69;1817363;78;21473;-62
2022/01/18 01:59:30;;;;;;;1.72;1.00;;;;;;;8.89;51.31;98336.09;1836432;77;21022;-62
2022/01/18 02:01:58;;;;;;;1.70;1.57;;;;;;;8.89;51.28;98344.86;1819999;77;20978;-61
2022/01/18 02:04:24;;;;;;;1.12;0.90;;;;;;;8.88;51.28;98351.66;1818363;77;21050;-62
2022/01/18 02:06:51;;;;;;;1.32;1.07;;;;;;;8.88;51.26;98347.69;1838303;77;21002;-60
2022/01/18 02:09:18;;;;;;;0.80;0.80;;;;;;;8.88;51.23;98352.98;1814723;77;21434;-64
2022/01/18 02:11:46;;;;;;;1.85;1.20;;;;;;;8.87;51.22;98345.55;1822556;77;21108;-61
2022/01/18 02:14:19;;;;;;;1.60;1.17;;;;;;;8.85;51.21;98353.69;1839363;77;21017;-62
2022/01/18 02:22:13;;;;;;;1.00;0.90;;;;;;;8.85;51.19;98403.19;1822375;77;21072;-62
2022/01/18 02:24:40;;;;;;;1.82;1.20;;;;;;;8.83;51.17;98394.10;1828104;77;21011;-62
2022/01/18 02:27:07;;;;;;;1.20;0.93;;;;;;;8.82;51.16;98405.69;1842097;77;20979;-62
2022/01/18 02:29:33;;;;;;;0.60;0.60;;;;;;;8.81;51.15;98395.31;1834077;76;21127;-61
2022/01/18 02:32:00;;;;;;;1.45;1.10;;;;;;;8.80;51.14;98395.80;1820854;77;21084;-62
2022/01/18 02:34:27;;;;;;;1.70;1.10;;;;;;;8.80;51.12;98409.55;1841199;77;21474;-61
2022/01/18 02:36:54;;;;;;;2.70;1.12;;;;;;;8.79;51.11;98421.16;1837402;77;21030;-60
2022/01/18 02:39:24;;;;;;;1.40;1.07;;;;;;;8.78;51.12;98439.37;1836165;77;21003;-61
2022/01/18 02:41:58;;;;;;;1.15;1.02;;;;;;;8.78;51.10;98449.96;1832150;77;21069;-62
2022/01/18 02:44:25;;;;;;;1.10;1.00;;;;;;;8.77;51.09;98467.69;1829670;76;21037;-62
2022/01/18 02:46:52;;;;;;;1.67;1.20;;;;;;;8.77;51.06;98462.88;1763573;79;21030;-62
2022/01/18 02:49:18;;;;;;;0.98;0.90;;;;;;;8.76;51.05;98473.16;1785807;80;21018;-60
2022/01/18 02:51:45;;;;;;;1.00;0.90;;;;;;;8.74;51.05;98475.99;1788502;80;21108;-60
2022/01/18 02:54:14;;;;;;;0.95;0.93;;;;;;;8.74;51.05;98473.34;1766738;80;21066;-61
2022/01/18 02:56:54;;;;;;;1.92;1.00;;;;;;;8.73;51.02;98465.09;1837272;77;21514;-62
2022/01/18 03:00:03;;;;;;;1.10;1.00;;;;;;;8.73;51.00;98474.84;1831751;77;21013;-62
2022/01/18 03:05:13;;;;;;;1.02;0.80;;;;;;;8.71;50.97;98480.84;1838089;77;21030;-61
2022/01/18 03:07:40;;;;;;;1.27;1.10;;;;;;;8.70;50.97;98500.39;1840645;77;21124;-61
2022/01/18 03:10:10;;;;;;;1.12;0.90;;;;;;;8.68;50.97;98491.30;1832402;77;21023;-61
2022/01/18 03:12:37;;;;;;;1.12;1.00;;;;;;;8.66;50.97;98500.75;1836048;77;21006;-62
2022/01/18 03:15:05;;;;;;;0.95;0.80;;;;;;;8.66;50.96;98485.38;1810786;78;21069;-64
2022/01/18 03:17:32;;;;;;;1.70;1.20;;;;;;;8.64;50.96;98496.15;1826470;76;21041;-62
2022/01/18 03:19:59;;;;;;;1.92;0.90;;;;;;;8.64;50.94;98496.66;1816598;76;22129;-62
2022/01/18 03:22:26;;;;;;;1.40;1.00;;;;;;;8.63;50.94;98514.86;1805833;78;20993;-60
2022/01/18 03:25:02;;;;;;;1.07;0.98;;;;;;;8.62;50.92;98515.37;1808420;78;21076;-63
2022/01/18 03:29:58;;;;;;;1.20;1.10;;;;;;;8.60;50.90;98519.22;1784189;79;20987;-61
2022/01/18 03:32:25;;;;;;;1.02;0.90;;;;;;;8.59;50.88;98506.47;1817157;78;21106;-61
2022/01/18 03:34:51;;;;;;;0.85;0.85;;;;;;;8.58;50.84;98503.52;1823637;78;21037;-61
2022/01/18 03:37:17;;;;;;;1.22;0.85;;;;;;;8.58;50.86;98514.61;1825034;78;21077;-61
2022/01/18 03:39:44;;;;;;;1.45;1.17;;;;;;;8.56;50.84;98513.98;1822428;76;21251;-62
2022/01/18 03:44:57;;;;;;;1.82;1.00;;;;;;;8.55;50.78;98533.50;1815577;78;21255;-61
2022/01/18 03:47:23;;;;;;;1.00;1.00;;;;;;;8.53;50.78;98533.68;1837117;78;21001;-60
2022/01/18 03:49:49;;;;;;;1.40;1.00;;;;;;;8.51;50.77;98535.69;1814667;78;21070;-61
2022/01/18 03:52:16;;;;;;;1.27;1.12;;;;;;;8.51;50.75;98544.14;1825915;78;21459;-62
2022/01/18 03:54:47;;;;;;;1.02;0.93;;;;;;;8.50;50.74;98560.53;1818685;78;21002;-62
2022/01/18 03:57:11;;;;;;;0.90;0.90;;;;;;;8.50;50.74;98557.05;1822680;78;21199;-62
2022/01/18 03:59:37;;;;;;;0.85;0.85;;;;;;;8.49;50.72;98569.98;1816651;78;21077;-61
2022/01/18 04:02:04;;;;;;;1.62;1.30;;;;;;;8.48;50.69;98557.73;1813940;78;21061;-62
2022/01/18 04:04:31;;;;;;;1.00;0.90;;;;;;;8.48;50.67;98588.17;1805878;78;21054;-62
2022/01/18 04:06:57;;;;;;;0.80;0.80;;;;;;;8.46;50.67;98580.44;1759265;80;21531;-61
2022/01/18 04:09:26;;;;;;;1.10;1.00;;;;;;;8.45;50.67;98585.39;1818629;78;21004;-62
2022/01/18 04:11:53;;;;;;;1.00;0.95;;;;;;;8.44;50.64;98611.05;1830506;77;21502;-63
2022/01/18 04:14:19;;;;;;;1.05;0.93;;;;;;;8.44;50.62;98607.08;1827419;77;21089;-62
2022/01/18 04:17:04;;;;;;;0.70;0.70;;;;;;;8.43;50.60;98612.55;1843501;77;21021;-61
2022/01/18 04:27:35;;;;;;;1.55;1.00;;;;;;;8.39;50.56;98627.94;1792122;79;21026;-60
2022/01/18 04:29:59;;;;;;;0.90;0.80;;;;;;;8.38;50.58;98648.80;1799818;79;21117;-62
2022/01/18 04:32:26;;;;;;;1.00;0.90;;;;;;;8.36;50.57;98638.88;1802267;78;21069;-62
2022/01/18 04:34:52;;;;;;;0.90;0.80;;;;;;;8.36;50.54;98669.81;1801930;79;21180;-62
2022/01/18 04:37:18;;;;;;;2.20;1.20;;;;;;;8.35;50.54;98675.61;1754507;79;21677;-62
2022/01/18 04:39:46;;;;;;;1.10;0.95;;;;;;;8.33;50.55;98680.27;1763648;80;21026;-62
2022/01/18 04:42:18;;;;;;;1.82;1.10;;;;;;;8.33;50.54;98690.03;1797186;79;21006;-61
2022/01/18 04:50:10;;;;;;;1.00;0.90;;;;;;;8.30;50.49;98691.20;1779357;79;21082;-62
2022/01/18 04:52:36;;;;;;;1.30;1.15;;;;;;;8.30;50.48;98711.55;1808929;79;21541;-60
2022/01/18 04:55:04;;;;;;;1.20;0.90;;;;;;;8.28;50.47;98724.95;1792563;79;20999;-62
2022/01/18 05:00:16;;;;;;;1.00;0.90;;;;;;;8.27;50.46;98734.72;1749866;81;21220;-61
2022/01/18 05:02:43;;;;;;;1.35;1.15;;;;;;;8.27;50.46;98756.40;1760054;79;21533;-62
2022/01/18 05:05:11;;;;;;;1.05;0.95;;;;;;;8.26;50.44;98751.59;1768506;80;21534;-61
2022/01/18 05:07:38;;;;;;;1.55;1.25;;;;;;;8.26;50.44;98754.73;1833842;77;21524;-62
2022/01/18 05:10:06;;;;;;;1.65;1.17;;;;;;;8.25;50.42;98761.86;1838988;77;21022;-62
2022/01/18 05:12:45;;;;;;;1.27;1.07;;;;;;;8.25;50.41;98758.41;1825066;78;21122;-62
2022/01/18 05:15:20;;;;;;;1.22;0.90;;;;;;;8.25;50.38;98756.58;1832459;78;21069;-61
2022/01/18 05:20:37;;;;;;;1.27;1.00;;;;;;;8.23;50.33;98764.38;1797080;77;21525;-61
2022/01/18 05:25:21;;;;;;;1.10;1.00;;;;;;;8.24;50.32;98779.23;1832852;78;21041;-61
2022/01/18 05:27:48;;;;;;;1.30;1.10;;;;;;;8.22;50.31;98775.94;1828537;78;20982;-62
2022/01/18 05:30:15;;;;;;;1.72;1.20;;;;;;;8.22;50.30;98785.20;1826284;78;21009;-62
2022/01/18 05:32:41;;;;;;;2.08;1.20;;;;;;;8.21;50.29;98794.97;1826807;77;21579;-62
2022/01/18 05:35:08;;;;;;;2.15;1.15;;;;;;;8.21;50.27;98788.86;1825054;78;21004;-61
2022/01/18 05:37:34;;;;;;;1.57;1.20;;;;;;;8.20;50.27;98801.25;1831004;77;21148;-60
2022/01/18 05:40:00;;;;;;;1.42;1.12;;;;;;;8.21;50.26;98783.58;1829097;78;21005;-61
2022/01/18 05:42:27;;;;;;;2.45;1.17;;;;;;;8.20;50.25;98789.85;1819274;78;21013;-61
2022/01/18 05:44:53;;;;;;;1.40;1.20;;;;;;;8.19;50.24;98802.73;1825154;78;21039;-62
2022/01/18 05:47:20;;;;;;;2.17;1.30;;;;;;;8.19;50.21;98806.23;1827264;78;21073;-61
2022/01/18 05:49:46;;;;;;;1.00;0.90;;;;;;;8.18;50.20;98800.60;1835223;78;21087;-62
2022/01/18 05:52:12;;;;;;;1.52;1.10;;;;;;;8.18;50.21;98794.50;1836218;78;21053;-61
2022/01/18 05:54:39;;;;;;;1.00;0.90;;;;;;;8.18;50.20;98808.54;1834467;78;21038;-63
2022/01/18 05:57:05;;;;;;;1.22;1.10;;;;;;;8.18;50.16;98815.66;1818884;78;21037;-62
2022/01/18 05:59:37;;;;;;;1.95;1.30;;;;;;;8.18;50.16;98820.95;1824537;78;21485;-62
2022/01/18 06:02:14;;;;;;;1.42;1.02;;;;;;;8.17;50.14;98824.11;1820662;77;21147;-62
2022/01/18 06:07:17;;;;;;;1.40;1.20;;;;;;;8.17;50.12;98824.11;1833480;78;20979;-62
2022/01/18 06:09:43;;;;;;;1.65;1.27;;;;;;;8.17;50.07;98840.45;1829865;78;21014;-62
2022/01/18 06:12:10;;;;;;;1.85;1.32;;;;;;;8.18;50.07;98851.38;1837543;77;21112;-62
2022/01/18 06:14:37;;;;;;;1.60;1.42;;;;;;;8.17;50.06;98858.50;1837199;77;21055;-62
2022/01/18 06:17:04;;;;;;;1.20;1.10;;;;;;;8.17;50.06;98864.27;1765741;81;21078;-63
2022/01/18 06:19:31;;;;;;;1.22;1.12;;;;;;;8.17;50.05;98874.38;1779601;80;21035;-63
2022/01/18 06:21:57;;;;;;;1.60;1.10;;;;;;;8.17;50.04;98865.59;1771820;79;21012;-63
2022/01/18 06:24:24;;;;;;;1.60;1.30;;;;;;;8.17;50.01;98882.78;1785994;79;21093;-63
2022/01/18 06:27:29;;;;;;;1.40;1.15;;;;;;;8.20;50.01;98881.95;1778802;79;28069;-64
2022/01/18 06:29:56;;;;;;;1.37;1.27;;;;;;;8.18;49.96;98881.80;1734816;80;21026;-61
2022/01/18 06:32:22;;;;;;;3.17;1.52;;;;;;;8.19;49.91;98885.61;1724272;80;21219;-62
2022/01/18 06:34:49;;;;;;;1.25;1.10;;;;;;;8.19;49.90;98890.05;1747518;82;21093;-62
2022/01/18 06:37:16;;;;;;;1.90;1.45;;;;;;;8.20;49.89;98894.36;1741906;80;21053;-62
2022/01/18 06:39:42;;;;;;;1.30;1.20;;;;;;;8.20;49.88;98893.03;1763149;80;21018;-62
2022/01/18 06:42:14;;;;;;;1.95;1.50;;;;;;;8.20;49.86;98893.03;1731836;82;21049;-61
2022/01/18 06:44:40;;;;;;;2.17;1.50;;;;;;;8.21;49.85;98895.52;1738650;82;23280;-63
2022/01/18 06:47:07;;;;;;;1.85;1.40;;;;;;;8.22;49.81;98896.33;1747588;80;20915;-62
2022/01/18 06:49:33;;;;;;;1.80;1.45;;;;;;;8.21;49.79;98892.88;1737518;82;21060;-63
2022/01/18 06:51:59;;;;;;;1.10;1.00;;;;;;;8.23;49.79;98896.67;1738683;82;21569;-62
2022/01/18 06:54:26;;;;;;;1.90;1.42;;;;;;;8.24;49.75;98887.72;1728011;80;21053;-62
2022/01/18 06:56:52;;;;;;;1.32;1.10;;;;;;;8.26;49.72;98894.98;1733436;80;21522;-62
2022/01/18 06:59:18;;;;;;;1.40;1.20;;;;;;;8.27;49.71;98903.26;1731136;80;21026;-63
2022/01/18 07:01:45;;;;;;;1.50;1.20;;;;;;;8.28;49.67;98908.86;1734913;82;21053;-62
2022/01/18 07:04:11;;;;;;;1.85;1.40;;;;;;;8.29;49.64;98909.20;1730464;82;21062;-61
2022/01/18 07:06:38;;;;;;;1.90;1.35;;;;;;;8.31;49.60;98911.68;1730658;80;21033;-62
2022/01/18 07:09:04;;;;;;;1.90;1.37;;;;;;;8.32;49.59;98917.28;1728145;82;22413;-62
2022/01/18 07:11:31;;;;;;;1.65;1.17;;;;;;;8.34;49.56;98915.28;1727940;82;21032;-63
2022/01/18 07:13:57;;;;;;;1.40;1.10;;;;;;;8.36;49.52;98930.48;1729671;80;21030;-63
2022/01/18 07:16:24;;;;;;;1.62;1.35;;;;;;;8.37;49.48;98929.50;1736689;82;21034;-63
2022/01/18 07:18:50;;;;;;;1.85;1.30;;;;;;;8.35;49.60;98930.17;1737348;82;21020;-63
2022/01/18 07:21:17;;;;;;;2.05;1.40;;;;;;;8.41;49.78;98931.65;1735250;80;21150;-62
2022/01/18 07:23:43;;;;;;;2.62;1.47;;;;;;;8.43;49.79;98938.10;1746670;82;21053;-62
2022/01/18 07:26:10;;;;;;;1.80;1.30;;;;;;;8.45;49.75;98950.15;1724278;82;21053;-64
2022/01/18 07:28:36;;;;;;;1.70;1.20;;;;;;;8.48;49.73;98948.16;1728024;82;21735;-63
2022/01/18 07:31:02;;;;;;;1.55;1.45;;;;;;;8.49;49.66;98938.72;1709914;82;21049;-63
2022/01/18 07:33:29;;;;;;;1.42;1.30;;;;;;;8.52;49.61;98959.56;1728126;82;21109;-63
2022/01/18 07:35:55;;;;;;;1.75;1.30;;;;;;;8.53;49.58;98954.58;1719664;82;21687;-63
2022/01/18 07:38:22;;;;;;;1.40;1.30;;;;;;;8.55;49.53;98963.17;1718363;82;21093;-63
2022/01/18 07:40:49;;;;;;;2.10;1.35;;;;;;;8.57;49.50;98976.23;1715270;82;21541;-62
2022/01/18 07:43:18;;;;;;;0.90;0.90;;;;;;;8.58;49.45;98972.61;1713146;82;21033;-62
2022/01/18 07:45:47;;;;;;;1.40;1.10;;;;;;;8.61;49.40;98976.21;1713739;82;22762;-63
2022/01/18 07:48:13;;;;;;;1.65;1.20;;;;;;;8.63;49.34;98995.39;1712103;82;21048;-66
2022/01/18 07:50:41;;;;;;;3.12;1.45;;;;;;;8.64;49.32;99000.52;1716004;82;21121;-62
2022/01/18 07:53:07;;;;;;;1.35;1.17;;;;;;;8.66;49.29;98995.06;1712225;82;21490;-63
2022/01/18 07:55:34;;;;;;;1.57;1.47;;;;;;;8.67;49.23;99007.28;1712064;82;21074;-63
2022/01/18 07:58:00;;;;;;;1.57;1.47;;;;;;;8.69;49.21;99015.88;1720078;82;22098;-62
2022/01/18 08:00:27;;;;;;;3.05;1.37;;;;;;;8.71;49.19;99006.44;1731311;82;21070;-61
2022/01/18 08:02:53;;;;;;;1.50;1.32;;;;;;;8.73;49.17;99015.88;1715149;82;21082;-62
2022/01/18 08:05:20;;;;;;;2.12;1.30;;;;;;;8.76;49.14;99030.08;1715325;82;21056;-63
2022/01/18 08:07:47;;;;;;;1.67;1.20;;;;;;;8.78;49.09;99042.65;1716325;82;21564;-61
2022/01/18 08:10:14;;;;;;;1.60;1.30;;;;;;;8.80;49.06;99043.30;1712812;82;21063;-62
2022/01/18 08:12:40;;;;;;;1.30;1.20;;;;;;;8.83;49.00;99043.47;1714727;82;21659;-62
2022/01/18 08:15:16;;;;;;;2.22;1.67;;;;;;;8.84;48.98;99047.24;1713581;82;21074;-62
2022/01/18 08:17:44;;;;;;;1.47;1.20;;;;;;;8.87;48.94;99055.36;1715071;82;21078;-63
2022/01/18 08:20:13;;;;;;;1.57;1.17;;;;;;;8.90;48.90;99056.83;1712524;82;21068;-62
2022/01/18 08:22:43;;;;;;;0.90;0.90;;;;;;;8.93;48.83;99055.98;1713708;82;21218;-63
2022/01/18 08:25:11;;;;;;;1.50;1.20;;;;;;;8.96;48.81;99063.59;1711649;82;21118;-62
2022/01/18 08:27:38;;;;;;;2.65;1.50;;;;;;;8.99;48.76;99063.73;1722261;82;21048;-62
2022/01/18 08:30:08;;;;;;;1.32;1.20;;;;;;;9.03;48.70;99065.03;1725583;82;21562;-63
2022/01/18 08:32:35;;;;;;;1.50;1.40;;;;;;;9.05;48.66;99073.13;1723743;82;21518;-62
2022/01/18 08:35:03;;;;;;;1.67;1.45;;;;;;;9.10;48.61;99069.97;1740428;82;21041;-62
2022/01/18 08:37:29;;;;;;;1.50;1.32;;;;;;;9.12;48.58;99082.55;1721901;82;21471;-62
2022/01/18 08:39:55;;;;;;;1.42;1.27;;;;;;;9.14;48.53;99087.16;1723152;82;21053;-62
2022/01/18 08:42:22;;;;;;;1.60;1.30;;;;;;;9.16;48.50;99089.14;1727465;82;21050;-62
2022/01/18 08:44:49;;;;;;;2.37;1.65;;;;;;;9.19;48.43;99102.05;1736702;82;21030;-60
2022/01/18 08:47:17;;;;;;;2.02;1.35;;;;;;;9.22;48.39;99100.36;1733237;82;21158;-61
2022/01/18 08:49:44;;;;;;;2.15;1.25;;;;;;;9.24;48.35;99094.37;1734480;82;21038;-61
2022/01/18 08:52:11;;;;;;;2.33;1.50;;;;;;;9.27;48.30;99099.83;1732498;82;21077;-62
2022/01/18 08:54:39;;;;;;;1.50;1.40;;;;;;;9.30;48.27;99109.27;1738472;82;21515;-62
2022/01/18 08:57:06;;;;;;;1.95;1.25;;;;;;;9.32;48.21;99119.20;1729095;82;21533;-62
2022/01/18 08:59:35;;;;;;;1.17;1.00;;;;;;;9.34;48.17;99107.41;1729165;82;21948;-62
2022/01/18 09:02:03;;;;;;;1.98;1.30;;;;;;;9.35;48.15;99110.40;1719168;81;21050;-60
2022/01/18 09:04:31;;;;;;;1.92;1.40;;;;;;;9.37;48.12;99118.18;1725737;82;21620;-66
2022/01/18 09:07:02;;;;;;;1.82;1.30;;;;;;;9.38;48.06;99125.12;1732354;82;21029;-61
2022/01/18 09:09:26;;;;;;;1.77;1.52;;;;;;;9.39;48.03;99130.25;1724987;82;21105;-62
2022/01/18 09:11:53;;;;;;;2.27;1.40;;;;;;;9.41;48.00;99137.53;1723730;82;21166;-63
2022/01/18 09:14:20;;;;;;;1.45;1.35;;;;;;;9.42;47.96;99134.37;1724609;82;21031;-62
2022/01/18 09:16:46;;;;;;;1.07;1.00;;;;;;;9.44;47.91;99137.19;1723226;82;21069;-61
2022/01/18 09:19:12;;;;;;;1.92;1.20;;;;;;;9.46;47.87;99135.66;1727613;82;21599;-62
2022/01/18 09:21:39;;;;;;;1.42;1.30;;;;;;;9.46;47.86;99129.03;1724979;82;21029;-63
2022/01/18 09:24:06;;;;;;;1.57;1.30;;;;;;;9.48;47.83;99158.84;1722153;82;21765;-64
2022/01/18 09:26:32;;;;;;;1.55;1.22;;;;;;;9.49;47.78;99165.00;1717971;82;21057;-64
2022/01/18 09:28:59;;;;;;;1.20;1.10;;;;;;;9.50;47.74;99150.22;1713785;82;21581;-66
2022/01/18 09:31:25;;;;;;;1.35;1.25;;;;;;;9.52;47.72;99158.84;1708942;82;21071;-65
2022/01/18 09:33:52;;;;;;;1.90;1.47;;;;;;;9.54;47.71;99162.15;1719059;82;21114;-64
2022/01/18 09:36:18;;;;;;;1.52;1.30;;;;;;;9.57;47.64;99164.43;1713459;81;22468;-64
2022/01/18 09:38:45;;;;;;;1.37;1.20;;;;;;;9.60;47.65;99164.56;1720926;82;21105;-64
2022/01/18 09:41:12;;;;;;;1.87;1.50;;;;;;;9.65;47.58;99147.64;1728580;82;21050;-64
2022/01/18 09:43:41;;;;;;;2.17;1.47;;;;;;;9.70;47.54;99171.00;1711626;82;21589;-64
2022/01/18 09:46:08;;;;;;;1.40;1.30;;;;;;;9.73;47.53;99175.42;1730836;82;21098;-62
2022/01/18 09:48:34;;;;;;;2.25;1.22;;;;;;;9.78;47.49;99170.94;1727357;82;21132;-62
2022/01/18 09:51:01;;;;;;;1.30;1.20;;;;;;;9.81;47.47;99189.98;1732013;82;21712;-65
2022/01/18 09:53:29;;;;;;;1.55;1.40;;;;;;;9.84;47.43;99194.09;1726888;82;21082;-64
2022/01/18 09:55:55;;;;;;;2.25;1.40;;;;;;;9.87;47.39;99194.23;1709666;82;21015;-62
2022/01/18 09:58:22;;;;;;;1.22;1.00;;;;;;;9.88;47.34;99190.08;1713403;82;21014;-63
2022/01/18 10:00:50;;;;;;;1.30;1.17;;;;;;;9.90;47.31;99184.61;1736664;82;21115;-63
2022/01/18 10:03:34;;;;;;;1.30;1.20;;;;;;;9.93;47.28;99198.83;1729380;82;21040;-63
2022/01/18 10:06:02;;;;;;;1.95;1.40;;;;;;;9.94;47.27;99199.16;1716830;81;21079;-64
2022/01/18 10:08:28;;;;;;;1.12;1.02;;;;;;;9.97;47.21;99189.53;1733713;82;21058;-64
2022/01/18 10:10:59;;;;;;;2.30;1.55;;;;;;;9.97;47.18;99190.86;1734681;82;21031;-62
2022/01/18 10:13:30;;;;;;;1.40;1.30;;;;;;;10.00;47.16;99203.76;1714521;82;21107;-63
2022/01/18 10:16:23;;;;;;;1.65;1.40;;;;;;;10.01;47.15;99209.41;1722731;82;21093;-64
2022/01/18 10:18:55;;;;;;;1.30;1.20;;;;;;;10.03;47.12;99216.69;1724897;82;21522;-64
2022/01/18 10:21:29;;;;;;;1.55;1.10;;;;;;;10.02;47.11;99207.91;1718564;82;21452;-63
2022/01/18 10:24:17;;;;;;;1.72;1.42;;;;;;;10.02;47.07;99215.87;1717297;82;21532;-62
2022/01/18 10:26:46;;;;;;;1.80;1.27;;;;;;;10.03;47.06;99221.48;1716703;82;21177;-61
2022/01/18 10:29:14;;;;;;;1.30;1.20;;;;;;;10.04;47.04;99211.69;1721088;82;21065;-62
2022/01/18 10:32:36;;;;;;;1.25;1.02;;;;;;;10.04;47.04;99216.99;1724482;82;21574;-63
2022/01/18 10:34:26;;;;;;;0.95;0.95;;;;;;;10.04;47.02;99229.78;1712892;82;21607;-61
2022/01/18 10:36:53;;;;;;;1.80;1.30;;;;;;;10.04;46.98;99216.52;1732659;82;21062;-62
2022/01/18 10:39:23;;;;;;;1.25;1.15;;;;;;;10.06;46.97;99226.11;1740553;82;21132;-63
2022/01/18 10:41:50;;;;;;;1.32;1.20;;;;;;;10.06;46.97;99235.40;1731760;82;21044;-62
2022/01/18 10:44:16;;;;;;;1.62;1.40;;;;;;;10.07;46.93;99243.19;1731148;82;21854;-63
2022/01/18 10:46:55;;;;;;;1.20;1.10;;;;;;;10.07;46.92;99244.52;1738280;82;21081;-64
2022/01/18 10:49:35;;;;;;;1.72;1.20;;;;;;;10.07;46.90;99246.35;1731216;82;21506;-63
2022/01/18 10:52:11;;;;;;;1.47;1.20;;;;;;;10.08;46.87;99255.95;1741173;82;23285;-63
2022/01/18 10:54:54;;;;;;;1.10;1.00;;;;;;;10.07;46.86;99263.60;1748131;82;21574;-62
2022/01/18 10:57:28;;;;;;;1.27;1.10;;;;;;;10.07;46.84;99259.63;1743121;82;21101;-64
2022/01/18 11:00:02;;;;;;;1.60;1.40;;;;;;;10.07;46.84;99256.97;1738614;82;21081;-65
2022/01/18 11:02:40;;;;;;;1.65;1.37;;;;;;;10.08;46.82;99270.55;1731099;82;21030;-66
2022/01/18 11:05:31;;;;;;;1.25;1.00;;;;;;;10.09;46.76;99266.91;1735406;82;21120;-65
2022/01/18 11:08:06;;;;;;;1.57;1.10;;;;;;;10.08;46.79;99274.02;1733613;82;21671;-60
2022/01/18 11:10:37;;;;;;;2.17;1.30;;;;;;;10.09;46.74;99277.02;1745626;82;21038;-63
2022/01/18 11:13:22;;;;;;;1.20;1.10;;;;;;;10.07;46.76;99273.70;1732824;82;21557;-63
2022/01/18 11:15:45;;;;;;;1.70;1.45;;;;;;;10.09;46.74;99280.17;1736683;82;21133;-63
2022/01/18 11:18:29;;;;;;;1.22;1.12;;;;;;;10.09;46.71;99280.99;1677315;85;21082;-62
2022/01/18 11:20:47;;;;;;;1.62;1.50;;;;;;;10.10;46.69;99292.42;1729326;81;21094;-65
2022/01/18 11:23:14;;;;;;;1.52;1.15;;;;;;;10.09;46.68;99306.20;1727923;82;21087;-63
2022/01/18 11:25:40;;;;;;;3.00;1.40;;;;;;;10.10;46.66;99295.08;1721275;82;21648;-64
2022/01/18 11:28:09;;;;;;;1.30;1.20;;;;;;;10.10;46.64;99297.26;1718116;82;21027;-64
2022/01/18 11:30:39;;;;;;;1.62;1.52;;;;;;;10.11;46.61;99304.20;1725421;82;21126;-64
2022/01/18 11:33:10;;;;;;;1.30;1.20;;;;;;;10.12;46.59;99312.98;1730753;82;21049;-61
2022/01/18 11:35:42;;;;;;;1.15;0.98;;;;;;;10.11;46.59;99302.88;1729613;82;21053;-63
2022/01/18 11:38:36;;;;;;;1.37;1.20;;;;;;;10.13;46.56;99315.47;1723740;82;21033;-62
2022/01/18 11:41:02;;;;;;;2.33;1.62;;;;;;;10.13;46.52;99265.03;1723498;82;21608;-63
2022/01/18 11:43:41;;;;;;;2.05;1.50;;;;;;;10.13;47.08;99310.67;1724492;82;21189;-64
2022/01/18 11:46:27;;;;;;;4.45;1.95;;;;;;;10.15;48.10;99334.70;1722316;82;21025;-63
2022/01/18 11:49:21;;;;;;;4.92;2.20;;;;;;;10.18;50.16;99324.25;1733330;82;21116;-64
2022/01/18 11:51:57;;;;;;;3.72;2.17;;;;;;;10.22;52.14;99343.63;1674104;84;21110;-64
2022/01/18 11:57:23;;;;;;;3.65;2.45;;;;;;;10.27;54.18;99358.19;1729526;82;21149;-64
2022/01/18 12:00:20;;;;;;;4.12;2.75;;;;;;;10.27;54.70;99364.83;1739003;82;21021;-64
2022/01/18 12:02:48;;;;;;;4.72;2.08;;;;;;;10.27;55.04;99360.34;1728921;82;21041;-65
2022/01/18 12:05:20;;;;;;;6.70;2.27;;;;;;;10.26;55.18;99374.63;1724554;82;21714;-63
2022/01/18 12:07:57;;;;;;;2.83;2.22;;;;;;;10.25;55.12;99370.30;1723255;82;21096;-65
2022/01/18 12:10:43;;;;;;;3.20;2.12;;;;;;;10.25;55.01;99391.55;1719206;82;21153;-65
2022/01/18 12:13:11;;;;;;;4.12;2.05;;;;;;;10.23;54.78;99397.53;1668490;84;21526;-64
2022/01/18 12:15:46;;;;;;;3.08;2.00;;;;;;;10.24;54.54;99399.20;1719082;81;21081;-63
2022/01/18 12:18:17;;;;;;;4.12;2.00;;;;;;;10.22;54.26;99413.97;1718040;82;21053;-63
2022/01/18 12:20:49;;;;;;;3.12;2.08;;;;;;;10.21;53.98;99416.79;1722339;82;21664;-63
2022/01/18 12:23:21;;;;;;;3.40;2.08;;;;;;;10.21;53.74;99420.77;1726077;82;21218;-64
2022/01/18 12:25:57;;;;;;;2.67;2.08;;;;;;;10.20;53.46;99436.39;1718711;82;21605;-64
2022/01/18 12:34:32;;;;;;;2.75;2.02;;;;;;;10.16;52.68;99445.67;1730604;82;21022;-65
2022/01/18 12:37:16;;;;;;;3.08;1.80;;;;;;;10.15;52.42;99460.78;1724007;82;22085;-65
2022/01/18 12:45:10;;;;;;;3.83;1.98;;;;;;;10.11;51.83;99462.64;1727685;82;21550;-62
2022/01/18 12:47:48;;;;;;;3.25;2.05;;;;;;;10.11;51.66;99458.66;1727529;82;21104;-64
2022/01/18 12:50:30;;;;;;;3.27;1.80;;;;;;;10.11;51.51;99451.51;1727499;82;21106;-63
2022/01/18 12:53:08;;;;;;;3.37;2.27;;;;;;;10.10;51.34;99464.47;1724663;82;21034;-63
2022/01/18 12:55:38;;;;;;;4.20;2.10;;;;;;;10.11;51.19;99470.59;1744363;82;21053;-63
2022/01/18 12:58:34;;;;;;;2.20;1.72;;;;;;;10.09;51.02;99464.12;1729706;82;21057;-63
2022/01/18 13:01:08;;;;;;;2.20;1.72;;;;;;;10.10;50.87;99468.92;1725441;80;21074;-62
2022/01/18 13:03:40;;;;;;;3.17;1.98;;;;;;;10.09;50.73;99477.40;1717646;82;21827;-62
2022/01/18 13:06:12;;;;;;;2.05;1.70;;;;;;;10.08;50.60;99469.09;1724370;82;21054;-62
2022/01/18 13:08:52;;;;;;;2.67;1.82;;;;;;;10.09;50.49;99490.67;1719720;82;21105;-62
2022/01/18 13:11:27;;;;;;;3.10;1.90;;;;;;;10.10;50.36;99476.89;1745683;82;21034;-63
2022/01/18 13:14:01;;;;;;;3.80;2.20;;;;;;;10.11;50.24;99487.85;1742825;81;21030;-62